Stewart, Canada
Current Conditions -  °F | °C
As of 6:53 PM on Tuesday 25 Nov 2014 (Local Time) from PAKT Reporting Station
Broken Clouds Broken Clouds  
Wind Chill: 41°   Ceiling: 1600
Heat Index: 41°   Visibility: 10mi
Dew Point: 39°   Wind: 3mph
Humidity: 93%   Direction: 180°S
Pressure: 30.19"   Gusts: NA
Location:  55.93°N, 130°W
Report Text: PAKT 260253Z 18003KT 10SM SCT008 BKN016 05/04 A3019 RMK AO2 SLP223 T00500039 58000
Loading
Personal Weather Stations






























Interactive Weather Map New forecast layout! Learn more

10-Day Weather Forecast

Advertisements
Track Severe Weather on mobile